createdAt,value
2022-12-01T00:01:12.620Z,22.15
2022-12-01T00:03:39.313Z,22.27
2022-12-01T00:06:17.889Z,21.30
2022-12-01T00:09:06.044Z,22.50
2022-12-01T00:11:34.796Z,21.80
2022-12-01T00:14:01.994Z,24.17
2022-12-01T00:16:29.078Z,22.90
2022-12-01T00:18:56.855Z,22.10
2022-12-01T00:21:25.190Z,23.42
2022-12-01T00:23:54.233Z,23.70
2022-12-01T00:26:21.916Z,27.65
2022-12-01T00:28:49.897Z,23.33
2022-12-01T00:31:16.564Z,23.73
2022-12-01T00:33:43.233Z,23.75
2022-12-01T00:36:09.970Z,23.17
2022-12-01T00:38:37.021Z,23.70
2022-12-01T00:41:03.978Z,23.60
2022-12-01T00:43:30.523Z,24.00
2022-12-01T00:45:57.680Z,22.67
2022-12-01T00:48:24.604Z,24.75
2022-12-01T00:50:52.653Z,23.30
2022-12-01T00:53:19.488Z,22.15
2022-12-01T00:55:46.100Z,23.05
2022-12-01T00:58:12.678Z,24.58
2022-12-01T01:00:39.223Z,22.73
2022-12-01T01:03:08.864Z,22.90
2022-12-01T01:05:39.932Z,24.02
2022-12-01T01:08:08.453Z,28.13
2022-12-01T01:10:41.947Z,21.35
2022-12-01T01:13:08.874Z,22.95
2022-12-01T01:15:35.808Z,24.65
2022-12-01T01:18:02.659Z,24.63
2022-12-01T01:20:29.634Z,23.42
2022-12-01T01:22:56.208Z,26.13
2022-12-01T01:25:22.900Z,25.23
2022-12-01T01:27:50.240Z,28.20
2022-12-01T01:30:17.684Z,24.33
2022-12-01T01:32:44.230Z,27.88
2022-12-01T01:35:10.837Z,25.67
2022-12-01T01:37:37.416Z,27.33
2022-12-01T01:40:04.503Z,25.88
2022-12-01T01:42:30.990Z,23.55
2022-12-01T01:44:58.905Z,25.90
2022-12-01T01:47:35.046Z,23.85
2022-12-01T01:50:12.401Z,23.60
2022-12-01T01:52:44.589Z,23.33
2022-12-01T01:55:12.744Z,24.45
2022-12-01T01:57:40.505Z,21.63
2022-12-01T02:00:13.976Z,23.38
2022-12-01T02:02:45.791Z,21.90
2022-12-01T02:05:16.811Z,23.98
2022-12-01T02:07:43.833Z,21.05
2022-12-01T02:10:13.156Z,21.02
2022-12-01T02:12:53.632Z,21.40
2022-12-01T02:15:40.320Z,21.27
2022-12-01T02:18:20.738Z,21.90
2022-12-01T02:21:20.037Z,21.30
2022-12-01T02:24:05.327Z,21.98
2022-12-01T02:26:56.415Z,22.08
2022-12-01T02:29:46.877Z,21.25
2022-12-01T02:32:24.870Z,22.02
2022-12-01T02:34:54.281Z,21.88
2022-12-01T02:37:42.023Z,21.88
2022-12-01T02:40:26.689Z,23.20
2022-12-01T02:43:03.678Z,22.27
2022-12-01T02:45:37.258Z,23.83
2022-12-01T02:48:11.168Z,27.13
2022-12-01T02:50:39.916Z,21.33
2022-12-01T02:53:09.282Z,20.70
2022-12-01T02:55:35.926Z,20.70
2022-12-01T02:58:02.478Z,21.55
2022-12-01T03:00:30.938Z,22.75
2022-12-01T03:03:09.239Z,21.50
2022-12-01T03:06:10.976Z,20.58
2022-12-01T03:09:04.347Z,21.60
2022-12-01T03:11:42.165Z,20.40
2022-12-01T03:14:27.423Z,25.67
2022-12-01T03:16:54.678Z,23.30
2022-12-01T03:19:31.748Z,21.15
2022-12-01T03:22:16.774Z,20.55
2022-12-01T03:24:48.055Z,21.10
2022-12-01T03:27:18.706Z,20.30
2022-12-01T03:29:49.729Z,19.35
2022-12-01T03:32:29.514Z,19.13
2022-12-01T03:35:05.048Z,19.77
2022-12-01T03:37:49.614Z,19.58
2022-12-01T03:40:21.616Z,20.25
2022-12-01T03:42:52.680Z,18.63
2022-12-01T03:45:31.455Z,18.70
2022-12-01T03:47:58.171Z,18.30
2022-12-01T03:50:31.458Z,21.30
2022-12-01T03:53:23.723Z,20.25
2022-12-01T03:55:56.622Z,18.65
2022-12-01T03:58:29.607Z,19.92
2022-12-01T04:00:57.768Z,23.15
2022-12-01T04:03:26.019Z,20.02
2022-12-01T04:05:52.559Z,18.67
2022-12-01T04:08:19.111Z,20.48
2022-12-01T04:10:45.620Z,19.50
2022-12-01T04:13:22.086Z,20.67
2022-12-01T04:15:53.182Z,20.08
2022-12-01T04:18:20.320Z,23.92
2022-12-01T04:20:48.526Z,20.45
2022-12-01T04:23:35.645Z,19.40
2022-12-01T04:26:03.733Z,19.52
2022-12-01T04:28:30.434Z,19.02
2022-12-01T04:30:57.055Z,21.17
2022-12-01T04:33:23.690Z,19.42
2022-12-01T04:36:00.203Z,20.40
2022-12-01T04:38:30.601Z,20.50
2022-12-01T04:40:57.733Z,21.38
2022-12-01T04:43:24.272Z,21.25
2022-12-01T04:45:50.780Z,20.80
2022-12-01T04:48:17.253Z,20.50
2022-12-01T04:50:43.724Z,21.40
2022-12-01T04:53:10.243Z,24.92
2022-12-01T04:55:39.001Z,20.05
2022-12-01T04:58:06.059Z,24.52
2022-12-01T05:00:33.246Z,19.90
2022-12-01T05:03:00.540Z,21.25
2022-12-01T05:05:27.679Z,20.42
2022-12-01T05:07:54.350Z,20.13
2022-12-01T05:10:21.406Z,20.55
2022-12-01T05:12:47.992Z,20.60
2022-12-01T05:15:14.687Z,20.88
2022-12-01T05:17:41.448Z,21.42
2022-12-01T05:20:27.545Z,20.33
2022-12-01T05:23:05.221Z,19.90
2022-12-01T05:25:32.344Z,18.83
2022-12-01T05:27:58.882Z,20.45
2022-12-01T05:30:28.575Z,21.15
2022-12-01T05:35:22.040Z,19.83
2022-12-01T05:37:48.541Z,19.98
2022-12-01T05:40:15.109Z,21.83
2022-12-01T05:42:41.610Z,20.33
2022-12-01T05:45:08.527Z,22.30
2022-12-01T05:47:34.981Z,19.55
2022-12-01T05:50:05.563Z,20.35
2022-12-01T05:52:34.902Z,18.33
2022-12-01T05:55:02.647Z,19.38
2022-12-01T05:57:29.332Z,21.23
2022-12-01T05:59:55.902Z,19.90
2022-12-01T06:02:22.794Z,19.38
2022-12-01T06:04:49.378Z,19.63
2022-12-01T06:07:15.919Z,20.50
2022-12-01T06:09:42.565Z,18.85
2022-12-01T06:12:09.096Z,20.02
2022-12-01T06:14:35.624Z,20.45
2022-12-01T06:17:02.589Z,19.65
2022-12-01T06:19:29.174Z,20.58
2022-12-01T06:21:55.677Z,21.52
2022-12-01T06:24:22.240Z,18.83
2022-12-01T06:26:48.826Z,20.38
2022-12-01T06:29:15.630Z,19.73
2022-12-01T06:31:42.764Z,19.90
2022-12-01T06:34:10.303Z,19.67
2022-12-01T06:36:36.902Z,18.67
2022-12-01T06:39:08.451Z,18.42
2022-12-01T06:41:34.989Z,17.67
2022-12-01T06:44:01.962Z,20.08
2022-12-01T06:46:28.920Z,20.73
2022-12-01T06:48:55.603Z,20.60
2022-12-01T06:51:22.602Z,20.25
2022-12-01T06:53:57.718Z,20.83
2022-12-01T06:56:27.456Z,19.52
2022-12-01T06:58:54.224Z,18.17
2022-12-01T07:01:21.741Z,19.92
2022-12-01T07:03:50.276Z,19.67
2022-12-01T07:06:17.990Z,20.42
2022-12-01T07:08:44.928Z,19.30
2022-12-01T07:11:13.820Z,18.70
2022-12-01T07:13:41.869Z,19.48
2022-12-01T07:16:09.489Z,18.48
2022-12-01T07:18:37.094Z,19.58
2022-12-01T07:21:07.114Z,19.50
2022-12-01T07:23:34.549Z,20.50
2022-12-01T07:26:06.036Z,20.55
2022-12-01T07:28:33.068Z,19.73
2022-12-01T07:31:12.892Z,18.83
2022-12-01T07:33:39.763Z,19.48
2022-12-01T07:36:07.224Z,19.40
2022-12-01T07:38:35.060Z,20.55
2022-12-01T07:41:16.116Z,19.80
2022-12-01T07:43:42.949Z,19.88
2022-12-01T07:46:20.584Z,19.70
2022-12-01T07:48:49.498Z,19.38
2022-12-01T07:51:19.178Z,19.48
2022-12-01T07:53:48.220Z,20.63
2022-12-01T07:56:15.364Z,20.38
2022-12-01T07:58:42.138Z,17.95
2022-12-01T08:01:14.751Z,18.40
2022-12-01T08:03:42.421Z,18.85
2022-12-01T08:06:10.033Z,20.52
2022-12-01T08:08:38.732Z,19.75
2022-12-01T08:11:07.781Z,21.33
2022-12-01T08:13:34.404Z,20.58
2022-12-01T08:16:05.137Z,19.73
2022-12-01T08:18:34.650Z,19.00
2022-12-01T08:21:01.376Z,18.17
2022-12-01T08:23:28.931Z,17.88
2022-12-01T08:25:57.544Z,19.35
2022-12-01T08:28:24.144Z,20.02
2022-12-01T08:30:50.754Z,20.88
2022-12-01T08:33:17.494Z,19.83
2022-12-01T08:35:44.003Z,20.50
2022-12-01T08:38:10.808Z,20.92
2022-12-01T08:40:37.349Z,20.70
2022-12-01T08:43:04.392Z,22.10
2022-12-01T08:45:30.933Z,21.80
2022-12-01T08:47:58.986Z,20.38
2022-12-01T08:50:27.281Z,20.67
2022-12-01T08:52:54.336Z,21.83
2022-12-01T08:55:21.985Z,20.08
2022-12-01T08:57:48.571Z,20.08
2022-12-01T09:00:16.068Z,20.10
2022-12-01T09:02:42.713Z,19.75
2022-12-01T09:05:09.625Z,21.25
2022-12-01T09:07:36.177Z,22.02
2022-12-01T09:10:02.894Z,20.70
2022-12-01T09:12:30.006Z,18.85
2022-12-01T09:14:56.591Z,19.33
2022-12-01T09:17:23.768Z,19.75
2022-12-01T09:19:50.661Z,19.50
2022-12-01T09:22:17.417Z,19.08
2022-12-01T09:24:43.933Z,18.45
2022-12-01T09:27:10.599Z,20.25
2022-12-01T09:29:37.060Z,20.80
2022-12-01T09:32:03.835Z,21.17
2022-12-01T09:34:30.391Z,22.00
2022-12-01T09:36:58.538Z,22.52
2022-12-01T09:39:25.749Z,23.40
2022-12-01T09:42:13.854Z,20.70
2022-12-01T09:44:53.099Z,24.70
2022-12-01T09:47:35.437Z,21.90
2022-12-01T09:50:16.436Z,22.13
2022-12-01T09:52:49.110Z,22.45
2022-12-01T09:55:19.067Z,20.52
2022-12-01T09:57:50.876Z,20.35
2022-12-01T10:00:24.268Z,21.73
2022-12-01T10:02:59.418Z,19.95
2022-12-01T10:05:31.523Z,20.25
2022-12-01T10:08:07.841Z,21.38
2022-12-01T10:10:42.920Z,21.38
2022-12-01T10:13:21.994Z,20.75
2022-12-01T10:15:54.460Z,19.15
2022-12-01T10:18:48.144Z,19.75
2022-12-01T10:21:25.372Z,20.77
2022-12-01T10:24:13.269Z,20.45
2022-12-01T10:26:55.016Z,18.70
2022-12-01T10:29:41.831Z,32.72
2022-12-01T10:32:18.101Z,22.05
2022-12-01T10:34:47.824Z,21.92
2022-12-01T10:37:20.319Z,20.27
2022-12-01T10:39:50.103Z,20.77
2022-12-01T10:42:16.679Z,20.38
2022-12-01T10:44:44.405Z,17.60
2022-12-01T10:47:22.302Z,18.50
2022-12-01T10:49:49.970Z,19.80
2022-12-01T10:52:41.799Z,20.00
2022-12-01T10:55:23.179Z,18.30
2022-12-01T10:57:50.563Z,19.40
2022-12-01T11:00:57.976Z,19.88
2022-12-01T11:03:24.500Z,20.15
2022-12-01T11:06:00.438Z,19.08
2022-12-01T11:08:39.090Z,20.50
2022-12-01T11:11:06.161Z,21.40
2022-12-01T11:13:36.406Z,19.33
2022-12-01T11:16:06.551Z,20.98
2022-12-01T11:21:08.667Z,18.15
2022-12-01T11:23:37.398Z,19.80
2022-12-01T11:26:14.155Z,19.30
2022-12-01T11:28:53.122Z,18.83
2022-12-01T11:31:22.394Z,20.67
2022-12-01T11:33:49.393Z,20.33
2022-12-01T11:36:25.991Z,19.38
2022-12-01T11:38:58.061Z,19.00
2022-12-01T11:41:32.152Z,18.83
2022-12-01T11:44:04.147Z,19.52
2022-12-01T11:46:50.206Z,17.25
2022-12-01T11:49:29.573Z,18.10
2022-12-01T11:51:56.105Z,20.25
2022-12-01T11:54:26.044Z,18.70
2022-12-01T11:59:40.921Z,19.45
2022-12-01T12:02:32.914Z,19.27
2022-12-01T12:05:31.341Z,20.42
2022-12-01T12:07:57.885Z,19.63
2022-12-01T12:10:39.866Z,18.20
2022-12-01T12:13:12.293Z,18.58
2022-12-01T12:16:00.599Z,20.05
2022-12-01T12:18:48.927Z,19.45
2022-12-01T12:21:30.752Z,19.80
2022-12-01T12:24:09.199Z,19.42
2022-12-01T12:26:45.092Z,21.50
2022-12-01T12:29:29.955Z,19.05
2022-12-01T12:32:34.987Z,19.40
2022-12-01T12:35:19.817Z,19.08
2022-12-01T12:37:58.745Z,19.25
2022-12-01T12:40:56.031Z,19.75
2022-12-01T12:43:31.585Z,19.17
2022-12-01T12:46:01.374Z,19.20
2022-12-01T12:48:50.854Z,19.67
2022-12-01T12:51:32.276Z,19.17
2022-12-01T12:54:28.955Z,18.63
2022-12-01T12:57:02.251Z,19.40
2022-12-01T12:59:41.053Z,20.77
2022-12-01T13:02:26.885Z,21.70
2022-12-01T13:05:05.450Z,21.92
2022-12-01T13:07:46.239Z,19.60
2022-12-01T13:10:28.685Z,19.85
2022-12-01T13:13:01.689Z,20.80
2022-12-01T13:15:30.774Z,20.80
2022-12-01T13:18:04.104Z,20.92
2022-12-01T13:20:33.342Z,20.58
2022-12-01T13:23:02.401Z,20.70
2022-12-01T13:25:40.954Z,20.85
2022-12-01T13:28:17.407Z,23.65
2022-12-01T13:31:08.707Z,20.85
2022-12-01T13:33:37.361Z,21.02
2022-12-01T13:39:04.773Z,20.67
2022-12-01T13:41:39.635Z,22.58
2022-12-01T13:44:28.222Z,27.55
2022-12-01T13:47:09.967Z,29.38
2022-12-01T13:49:44.730Z,24.33
2022-12-01T13:52:23.794Z,35.85
2022-12-01T13:55:23.116Z,36.92
2022-12-01T13:58:13.235Z,24.45
2022-12-01T14:03:20.236Z,22.15
2022-12-01T14:05:53.199Z,21.33
2022-12-01T14:08:30.842Z,20.58
2022-12-01T14:11:00.626Z,19.05
2022-12-01T14:13:28.697Z,20.05
2022-12-01T14:15:57.979Z,26.45
2022-12-01T14:18:44.295Z,23.83
2022-12-01T14:21:12.444Z,19.63
2022-12-01T14:23:58.928Z,20.15
2022-12-01T14:26:28.490Z,20.35
2022-12-01T14:28:54.966Z,19.80
2022-12-01T14:31:46.328Z,21.20
2022-12-01T14:34:19.219Z,19.90
2022-12-01T14:37:02.903Z,20.58
2022-12-01T14:39:33.791Z,21.42
2022-12-01T14:42:34.037Z,22.17
2022-12-01T14:45:04.030Z,23.02
2022-12-01T14:47:42.232Z,22.40
2022-12-01T14:50:30.099Z,22.75
2022-12-01T14:53:04.248Z,21.90
2022-12-01T14:55:42.076Z,22.80
2022-12-01T14:58:16.920Z,22.75
2022-12-01T15:01:08.931Z,21.55
2022-12-01T15:03:42.571Z,20.98
2022-12-01T15:06:10.384Z,19.70
2022-12-01T15:08:49.191Z,20.25
2022-12-01T15:11:27.663Z,19.77
2022-12-01T15:13:55.769Z,21.38
2022-12-01T15:16:24.911Z,22.48
2022-12-01T15:18:52.393Z,20.97
2022-12-01T15:21:29.797Z,21.65
2022-12-01T15:24:03.898Z,22.60
2022-12-01T15:26:36.313Z,23.30
2022-12-01T15:29:22.368Z,23.13
2022-12-01T15:31:51.730Z,21.80
2022-12-01T15:34:24.959Z,19.75
2022-12-01T15:36:52.912Z,21.02
2022-12-01T15:39:26.327Z,20.58
2022-12-01T15:41:54.322Z,22.17
2022-12-01T15:44:36.312Z,21.90
2022-12-01T15:47:31.015Z,19.85
2022-12-01T15:49:57.576Z,23.25
2022-12-01T15:52:24.660Z,22.35
2022-12-01T15:54:51.788Z,21.58
2022-12-01T15:57:21.012Z,23.02
2022-12-01T15:59:53.991Z,26.15
2022-12-01T16:02:20.664Z,23.83
2022-12-01T16:04:48.815Z,23.90
2022-12-01T16:07:15.805Z,25.20
2022-12-01T16:09:59.695Z,23.75
2022-12-01T16:12:36.278Z,23.15
2022-12-01T16:15:08.382Z,22.38
2022-12-01T16:17:47.160Z,21.55
2022-12-01T16:20:25.483Z,23.42
2022-12-01T16:23:00.003Z,23.92
2022-12-01T16:25:35.059Z,24.92
2022-12-01T16:28:03.475Z,22.98
2022-12-01T16:30:36.688Z,23.63
2022-12-01T16:33:27.581Z,23.45
2022-12-01T16:35:55.149Z,23.67
2022-12-01T16:38:24.545Z,24.20
2022-12-01T16:40:53.780Z,22.77
2022-12-01T16:43:22.634Z,22.52
2022-12-01T16:45:53.338Z,22.58
2022-12-01T16:48:20.409Z,22.40
2022-12-01T16:50:48.509Z,22.85
2022-12-01T16:53:15.902Z,22.90
2022-12-01T16:55:53.541Z,21.63
2022-12-01T16:58:20.368Z,22.35
2022-12-01T17:00:52.746Z,21.55
2022-12-01T17:03:22.437Z,23.30
2022-12-01T17:05:49.537Z,22.35
2022-12-01T17:08:17.103Z,21.17
2022-12-01T17:10:46.163Z,21.08
2022-12-01T17:13:13.380Z,23.83
2022-12-01T17:15:45.110Z,22.73
2022-12-01T17:18:12.525Z,21.63
2022-12-01T17:20:39.373Z,21.77
2022-12-01T17:23:06.505Z,21.73
2022-12-01T17:25:35.010Z,23.15
2022-12-01T17:28:01.571Z,21.60
2022-12-01T17:30:28.076Z,23.30
2022-12-01T17:32:54.657Z,20.23
2022-12-01T17:35:21.173Z,23.15
2022-12-01T17:37:47.672Z,21.65
2022-12-01T17:40:14.701Z,22.83
2022-12-01T17:42:45.561Z,21.85
2022-12-01T17:45:16.909Z,21.35
2022-12-01T17:47:43.453Z,21.15
2022-12-01T17:50:10.348Z,23.50
2022-12-01T17:52:37.452Z,23.55
2022-12-01T17:55:04.310Z,23.23
2022-12-01T17:57:32.224Z,23.45
2022-12-01T18:00:00.871Z,24.50
2022-12-01T18:02:28.096Z,23.55
2022-12-01T18:04:54.839Z,22.85
2022-12-01T18:13:51.380Z,22.33
2022-12-01T18:16:21.377Z,22.33
2022-12-01T18:18:49.019Z,22.15
2022-12-01T18:21:17.960Z,22.63
2022-12-01T18:24:02.759Z,22.83
2022-12-01T18:26:31.759Z,20.63
2022-12-01T18:29:16.051Z,22.13
2022-12-01T18:31:43.171Z,22.10
2022-12-01T18:34:11.211Z,20.95
2022-12-01T18:36:39.921Z,24.10
2022-12-01T18:39:08.347Z,22.30
2022-12-01T18:41:35.674Z,23.05
2022-12-01T18:44:02.683Z,25.23
2022-12-01T18:46:29.510Z,23.15
2022-12-01T19:10:21.282Z,28.15
2022-12-01T19:12:47.964Z,27.70
2022-12-01T19:15:14.499Z,29.33
2022-12-01T19:17:41.008Z,31.40
2022-12-01T19:20:08.117Z,28.10
2022-12-01T19:22:34.635Z,27.98
2022-12-01T19:25:01.101Z,26.23
2022-12-01T19:27:29.172Z,26.95
2022-12-01T19:29:55.700Z,26.05
2022-12-01T19:32:23.223Z,24.75
2022-12-01T19:34:49.994Z,21.58
2022-12-01T19:37:16.795Z,23.75
2022-12-01T19:39:43.302Z,23.55
2022-12-01T19:42:09.762Z,23.52
2022-12-01T19:44:36.342Z,20.23
2022-12-01T19:47:03.670Z,21.85
2022-12-01T19:49:30.444Z,21.35
2022-12-01T19:51:56.963Z,20.92
2022-12-01T19:54:23.467Z,21.55
2022-12-01T19:56:50.554Z,22.13
2022-12-01T19:59:17.111Z,22.35
2022-12-01T20:01:43.821Z,22.10
2022-12-01T20:04:10.528Z,22.13
2022-12-01T20:06:37.792Z,23.40
2022-12-01T20:09:06.707Z,23.77
2022-12-01T20:11:35.153Z,24.30
2022-12-01T20:14:03.460Z,22.58
2022-12-01T20:16:30.566Z,21.65
2022-12-01T20:19:01.368Z,23.55
2022-12-01T20:21:35.023Z,22.50
2022-12-01T20:24:07.172Z,23.30
2022-12-01T21:21:08.080Z,23.10
2022-12-01T21:23:34.707Z,23.40
2022-12-01T21:26:01.505Z,24.15
2022-12-01T22:30:33.170Z,24.17
2022-12-01T22:33:05.437Z,23.92
2022-12-01T22:35:44.874Z,23.73
2022-12-01T22:38:41.207Z,24.23
2022-12-01T22:41:15.999Z,24.20
2022-12-01T22:43:49.766Z,25.08
2022-12-01T22:46:20.835Z,22.90
2022-12-01T22:49:11.012Z,23.13
2022-12-01T22:54:16.767Z,22.88
2022-12-01T22:56:46.446Z,25.30
2022-12-01T22:59:21.033Z,24.75
2022-12-01T23:02:06.253Z,24.33
2022-12-01T23:04:39.786Z,23.55
2022-12-01T23:07:35.998Z,23.83
2022-12-01T23:10:08.390Z,25.48
2022-12-01T23:12:36.382Z,23.70
